createdAt,value
2022-08-03T00:00:39.634Z,53.40
2022-08-03T00:03:07.405Z,54.16
2022-08-03T00:05:35.479Z,54.25
2022-08-03T00:08:03.094Z,55.13
2022-08-03T00:10:32.830Z,55.60
2022-08-03T00:13:00.176Z,55.88
2022-08-03T00:15:29.162Z,56.43
2022-08-03T00:17:57.493Z,56.42
2022-08-03T00:20:25.654Z,56.20
2022-08-03T00:22:53.135Z,56.32
2022-08-03T00:25:20.838Z,57.06
2022-08-03T00:27:48.505Z,56.87
2022-08-03T00:30:18.477Z,57.38
2022-08-03T00:32:47.586Z,57.35
2022-08-03T00:35:36.570Z,56.29
2022-08-03T00:38:05.433Z,56.84
2022-08-03T00:40:36.175Z,56.48
2022-08-03T00:43:08.294Z,55.94
2022-08-03T00:45:39.104Z,57.50
2022-08-03T00:48:29.786Z,55.96
2022-08-03T00:50:59.024Z,56.58
2022-08-03T00:53:27.842Z,56.63
2022-08-03T00:55:55.856Z,56.51
2022-08-03T00:58:24.223Z,56.98
2022-08-03T01:00:52.747Z,57.41
2022-08-03T01:03:21.770Z,57.28
2022-08-03T01:05:52.394Z,56.86
2022-08-03T01:08:26.126Z,57.79
2022-08-03T01:10:57.378Z,58.02
2022-08-03T01:14:01.125Z,57.41
2022-08-03T01:16:36.018Z,57.18
2022-08-03T01:19:36.556Z,56.79
2022-08-03T01:22:37.254Z,57.09
2022-08-03T01:25:31.422Z,57.47
2022-08-03T01:28:15.293Z,56.54
2022-08-03T01:30:46.613Z,56.60
2022-08-03T01:33:39.336Z,57.05
2022-08-03T01:36:16.095Z,57.29
2022-08-03T01:38:48.849Z,58.54
2022-08-03T01:41:30.400Z,58.81
2022-08-03T01:44:29.139Z,59.93
2022-08-03T01:46:50.790Z,59.31
2022-08-03T01:49:20.195Z,59.60
2022-08-03T01:52:04.033Z,60.41
2022-08-03T01:54:40.977Z,59.92
2022-08-03T01:57:10.895Z,60.00
2022-08-03T01:59:40.810Z,59.58
2022-08-03T02:02:16.076Z,59.88
2022-08-03T02:05:05.568Z,59.82
2022-08-03T02:07:43.551Z,60.02
2022-08-03T02:10:16.474Z,60.58
2022-08-03T02:13:09.169Z,60.65
2022-08-03T02:15:38.922Z,60.56
2022-08-03T02:18:11.230Z,60.17
2022-08-03T02:20:42.056Z,61.34
2022-08-03T02:23:10.988Z,62.82
2022-08-03T02:25:44.928Z,63.35
2022-08-03T02:28:31.643Z,63.28
2022-08-03T02:31:04.843Z,61.28
2022-08-03T02:33:38.727Z,62.28
2022-08-03T02:36:08.643Z,61.00
2022-08-03T02:38:42.563Z,60.37
2022-08-03T02:41:17.487Z,62.08
2022-08-03T02:44:06.145Z,63.00
2022-08-03T02:46:40.029Z,61.59
2022-08-03T02:49:41.359Z,62.60
2022-08-03T02:51:59.868Z,61.75
2022-08-03T02:54:29.481Z,62.00
2022-08-03T02:56:58.664Z,60.69
2022-08-03T02:59:31.901Z,60.96
2022-08-03T03:02:02.288Z,61.30
2022-08-03T03:04:33.066Z,61.87
2022-08-03T03:07:04.418Z,61.31
2022-08-03T03:09:40.404Z,61.72
2022-08-03T03:12:11.498Z,61.61
2022-08-03T03:14:39.946Z,61.97
2022-08-03T03:17:10.808Z,61.42
2022-08-03T03:19:42.185Z,62.19
2022-08-03T03:22:14.816Z,62.39
2022-08-03T03:24:44.346Z,61.60
2022-08-03T03:27:16.781Z,62.01
2022-08-03T03:29:45.944Z,62.42
2022-08-03T03:32:14.067Z,62.82
2022-08-03T03:34:42.752Z,61.95
2022-08-03T03:37:13.556Z,62.32
2022-08-03T03:39:42.614Z,61.39
2022-08-03T03:42:10.127Z,61.95
2022-08-03T03:44:38.841Z,60.84
2022-08-03T03:47:06.724Z,61.72
2022-08-03T03:49:35.180Z,60.40
2022-08-03T03:52:07.574Z,60.90
2022-08-03T03:54:45.615Z,61.07
2022-08-03T03:57:14.436Z,59.97
2022-08-03T03:59:43.482Z,61.48
2022-08-03T04:02:12.903Z,61.86
2022-08-03T04:05:00.753Z,60.13
2022-08-03T04:07:57.908Z,59.93
2022-08-03T04:10:47.270Z,60.41
2022-08-03T04:13:17.433Z,59.77
2022-08-03T04:15:47.371Z,58.56
2022-08-03T04:18:18.291Z,57.76
2022-08-03T04:20:49.291Z,58.34
2022-08-03T04:23:21.450Z,58.59
2022-08-03T04:25:53.126Z,59.44
2022-08-03T04:28:31.184Z,58.42
2022-08-03T04:31:01.978Z,57.81
2022-08-03T04:33:33.092Z,59.17
2022-08-03T04:36:06.844Z,59.09
2022-08-03T04:38:40.070Z,59.51
2022-08-03T04:41:08.895Z,60.27
2022-08-03T04:43:42.992Z,59.99
2022-08-03T04:46:14.886Z,60.60
2022-08-03T04:48:44.858Z,60.31
2022-08-03T04:51:14.326Z,60.05
2022-08-03T04:53:44.864Z,60.39
2022-08-03T04:56:12.466Z,60.29
2022-08-03T04:58:40.512Z,60.58
2022-08-03T05:01:08.358Z,61.48
2022-08-03T05:03:37.931Z,58.97
2022-08-03T05:06:11.147Z,59.11
2022-08-03T05:08:46.481Z,59.57
2022-08-03T05:11:18.040Z,60.26
2022-08-03T05:13:45.936Z,58.57
2022-08-03T05:16:16.514Z,58.17
2022-08-03T05:18:45.331Z,60.15
2022-08-03T05:21:17.770Z,59.18
2022-08-03T05:23:45.499Z,60.91
2022-08-03T05:26:13.199Z,61.11
2022-08-03T05:28:40.760Z,61.07
2022-08-03T05:31:19.873Z,61.52
2022-08-03T05:33:49.061Z,62.64
2022-08-03T05:36:17.305Z,61.77
2022-08-03T05:38:45.491Z,62.60
2022-08-03T05:41:21.591Z,62.63
2022-08-03T05:43:55.658Z,62.37
2022-08-03T05:46:23.288Z,62.96
2022-08-03T05:48:51.482Z,62.42
2022-08-03T05:51:20.395Z,61.64
2022-08-03T05:53:48.286Z,60.94
2022-08-03T05:56:16.523Z,62.15
2022-08-03T05:58:48.085Z,61.70
2022-08-03T06:01:17.078Z,59.56
2022-08-03T06:03:48.008Z,58.30
2022-08-03T06:06:16.918Z,59.57
2022-08-03T06:08:47.557Z,57.18
2022-08-03T06:11:20.878Z,57.37
2022-08-03T06:13:48.366Z,56.26
2022-08-03T06:16:17.814Z,57.74
2022-08-03T06:18:49.440Z,55.96
2022-08-03T06:21:18.191Z,56.55
2022-08-03T06:23:54.830Z,56.43
2022-08-03T06:26:24.737Z,53.80
2022-08-03T06:28:54.143Z,55.22
2022-08-03T06:31:32.698Z,56.93
2022-08-03T06:34:30.988Z,52.78
2022-08-03T06:36:52.432Z,53.02
2022-08-03T06:39:23.458Z,52.02
2022-08-03T06:41:54.819Z,51.53
2022-08-03T06:44:23.692Z,50.96
2022-08-03T06:46:52.502Z,49.57
2022-08-03T06:49:21.616Z,49.37
2022-08-03T06:52:06.154Z,49.68
2022-08-03T06:54:35.674Z,53.50
2022-08-03T06:57:04.963Z,49.40
2022-08-03T07:00:10.656Z,47.97
2022-08-03T07:02:20.648Z,48.29
2022-08-03T07:04:49.204Z,46.48
2022-08-03T07:07:17.570Z,48.13
2022-08-03T07:09:56.616Z,46.13
2022-08-03T07:12:27.533Z,48.64
2022-08-03T07:15:00.363Z,45.81
2022-08-03T07:17:30.088Z,44.72
2022-08-03T07:19:59.307Z,44.79
2022-08-03T07:22:27.013Z,45.19
2022-08-03T07:24:54.579Z,44.02
2022-08-03T07:27:22.514Z,41.87
2022-08-03T07:29:49.949Z,41.60
2022-08-03T07:32:17.510Z,42.39
2022-08-03T07:34:45.064Z,42.91
2022-08-03T07:37:12.497Z,41.38
2022-08-03T07:39:40.075Z,42.30
2022-08-03T07:42:07.719Z,42.96
2022-08-03T07:44:36.091Z,41.38
2022-08-03T07:47:03.725Z,41.95
2022-08-03T07:49:32.759Z,41.89
2022-08-03T07:52:19.582Z,41.95
2022-08-03T07:54:47.141Z,42.06
2022-08-03T07:57:14.600Z,41.95
2022-08-03T07:59:56.550Z,41.30
2022-08-03T08:02:25.440Z,40.40
2022-08-03T08:04:54.991Z,39.21
2022-08-03T08:07:29.608Z,40.18
2022-08-03T08:10:02.368Z,40.79
2022-08-03T08:12:32.667Z,40.57
2022-08-03T08:15:09.851Z,38.96
2022-08-03T08:17:50.878Z,39.20
2022-08-03T08:20:28.273Z,38.88
2022-08-03T08:23:03.657Z,38.90
2022-08-03T08:25:52.196Z,39.39
2022-08-03T08:28:30.485Z,40.10
2022-08-03T08:31:04.594Z,41.00
2022-08-03T08:34:03.028Z,39.08
2022-08-03T08:36:24.199Z,38.35
2022-08-03T08:38:51.644Z,38.70
2022-08-03T08:41:19.422Z,38.96
2022-08-03T08:43:46.887Z,38.19
2022-08-03T08:46:23.452Z,37.68
2022-08-03T08:48:53.037Z,38.40
2022-08-03T08:51:22.689Z,37.47
2022-08-03T08:53:53.620Z,38.16
2022-08-03T08:56:25.460Z,38.68
2022-08-03T08:58:58.904Z,37.52
2022-08-03T09:01:26.919Z,36.41
2022-08-03T09:03:54.939Z,36.68
2022-08-03T09:06:23.038Z,36.64
2022-08-03T09:08:51.596Z,36.58
2022-08-03T09:11:54.440Z,36.55
2022-08-03T09:14:35.310Z,34.99
2022-08-03T09:17:03.011Z,36.11
2022-08-03T09:19:33.179Z,35.32
2022-08-03T09:22:18.662Z,34.79
2022-08-03T09:25:21.590Z,35.39
2022-08-03T09:27:47.038Z,34.94
2022-08-03T09:30:33.930Z,35.89
2022-08-03T09:33:05.004Z,35.26
2022-08-03T09:38:27.289Z,33.93
2022-08-03T09:41:00.060Z,33.61
2022-08-03T09:43:28.625Z,33.38
2022-08-03T09:46:07.434Z,33.75
2022-08-03T09:48:36.794Z,34.17
2022-08-03T09:51:13.536Z,33.46
2022-08-03T09:53:58.781Z,33.49
2022-08-03T09:56:41.371Z,33.42
2022-08-03T09:59:10.860Z,34.07
2022-08-03T10:01:41.838Z,33.24
2022-08-03T10:04:14.290Z,33.69
2022-08-03T10:06:42.133Z,32.97
2022-08-03T10:09:13.859Z,33.76
2022-08-03T10:11:43.308Z,32.92
2022-08-03T10:14:19.072Z,33.43
2022-08-03T10:16:48.598Z,33.69
2022-08-03T10:19:17.015Z,32.62
2022-08-03T10:21:56.373Z,33.02
2022-08-03T10:24:28.253Z,32.82
2022-08-03T10:27:02.918Z,32.57
2022-08-03T10:29:37.269Z,32.79
2022-08-03T10:32:14.644Z,33.14
2022-08-03T10:34:44.638Z,32.29
2022-08-03T10:37:15.920Z,32.52
2022-08-03T10:39:53.898Z,34.06
2022-08-03T10:42:24.272Z,32.61
2022-08-03T10:45:04.185Z,32.45
2022-08-03T10:47:33.296Z,32.74
2022-08-03T10:50:01.810Z,32.74
2022-08-03T10:52:33.768Z,33.99
2022-08-03T10:55:50.327Z,33.57
2022-08-03T10:58:36.422Z,31.60
2022-08-03T11:01:05.528Z,31.58
2022-08-03T11:03:33.395Z,30.53
2022-08-03T11:06:22.226Z,31.09
2022-08-03T11:09:10.639Z,32.21
2022-08-03T11:11:39.503Z,31.39
2022-08-03T11:14:09.882Z,32.16
2022-08-03T11:16:49.963Z,31.89
2022-08-03T11:19:28.234Z,31.73
2022-08-03T11:21:58.124Z,32.79
2022-08-03T11:24:41.126Z,31.85
2022-08-03T11:27:17.805Z,30.95
2022-08-03T11:30:03.770Z,30.93
2022-08-03T11:32:40.480Z,31.56
2022-08-03T11:35:23.951Z,31.40
2022-08-03T11:38:01.931Z,31.48
2022-08-03T11:40:51.244Z,31.25
2022-08-03T11:43:31.978Z,30.68
2022-08-03T11:46:02.118Z,30.99
2022-08-03T11:48:40.054Z,29.99
2022-08-03T11:51:29.871Z,30.67
2022-08-03T11:54:05.797Z,30.80
2022-08-03T11:56:49.740Z,31.39
2022-08-03T11:59:21.760Z,31.60
2022-08-03T12:01:51.162Z,30.55
2022-08-03T12:04:18.662Z,30.89
2022-08-03T12:07:06.260Z,30.64
2022-08-03T12:09:36.191Z,29.99
2022-08-03T12:12:03.818Z,30.23
2022-08-03T12:14:48.577Z,29.50
2022-08-03T12:17:19.379Z,29.27
2022-08-03T12:19:47.446Z,30.45
2022-08-03T12:22:16.799Z,29.77
2022-08-03T12:24:46.700Z,30.13
2022-08-03T12:27:33.031Z,30.17
2022-08-03T12:30:01.813Z,30.15
2022-08-03T12:32:30.522Z,29.58
2022-08-03T12:35:04.462Z,29.95
2022-08-03T12:37:32.516Z,29.98
2022-08-03T12:40:07.857Z,30.99
2022-08-03T12:42:42.154Z,29.39
2022-08-03T12:45:21.089Z,29.27
2022-08-03T12:47:56.553Z,28.98
2022-08-03T12:50:29.562Z,29.91
2022-08-03T12:53:00.492Z,29.96
2022-08-03T12:55:57.722Z,30.56
2022-08-03T12:58:35.959Z,29.28
2022-08-03T13:01:10.115Z,29.68
2022-08-03T13:03:43.501Z,29.11
2022-08-03T13:06:15.347Z,29.40
2022-08-03T13:08:43.997Z,29.84
2022-08-03T13:11:22.780Z,29.61
2022-08-03T13:13:53.866Z,29.34
2022-08-03T13:16:22.489Z,29.91
2022-08-03T13:18:51.929Z,29.89
2022-08-03T13:21:20.931Z,29.91
2022-08-03T13:23:48.791Z,28.65
2022-08-03T13:26:16.190Z,28.88
2022-08-03T13:28:43.795Z,29.49
2022-08-03T13:31:11.273Z,29.06
2022-08-03T13:33:40.377Z,29.85
2022-08-03T13:36:07.795Z,30.03
2022-08-03T13:38:35.411Z,29.72
2022-08-03T13:41:05.220Z,28.98
2022-08-03T13:43:32.654Z,29.11
2022-08-03T13:46:00.052Z,29.27
2022-08-03T13:48:37.430Z,29.11
2022-08-03T13:51:11.809Z,30.63
2022-08-03T13:53:51.379Z,30.09
2022-08-03T13:56:18.805Z,29.69
2022-08-03T13:58:46.198Z,29.29
2022-08-03T14:01:13.622Z,29.88
2022-08-03T14:03:41.130Z,30.05
2022-08-03T14:06:08.650Z,30.09
2022-08-03T14:08:35.963Z,30.02
2022-08-03T14:11:05.035Z,29.93
2022-08-03T14:13:32.428Z,28.95
2022-08-03T14:15:59.875Z,28.86
2022-08-03T14:18:27.911Z,29.55
2022-08-03T14:21:06.410Z,29.49
2022-08-03T14:23:36.415Z,29.97
2022-08-03T14:26:05.214Z,30.31
2022-08-03T14:28:32.963Z,29.44
2022-08-03T14:31:01.042Z,29.92
2022-08-03T14:33:28.686Z,28.59
2022-08-03T14:35:56.049Z,29.66
2022-08-03T14:38:23.909Z,29.02
2022-08-03T14:40:51.602Z,28.94
2022-08-03T14:43:21.146Z,28.64
2022-08-03T14:45:52.438Z,28.98
2022-08-03T14:50:29.163Z,29.42
2022-08-03T14:51:09.380Z,29.13
2022-08-03T14:53:36.767Z,29.71
2022-08-03T14:56:09.858Z,29.58
2022-08-03T14:58:38.147Z,29.73
2022-08-03T15:02:02.307Z,29.28
2022-08-03T15:03:54.807Z,29.74
2022-08-03T15:06:22.590Z,28.98
2022-08-03T15:09:06.226Z,28.47
2022-08-03T15:11:37.368Z,29.08
2022-08-03T15:14:08.987Z,29.25
2022-08-03T15:16:38.156Z,28.46
2022-08-03T15:20:01.133Z,28.67
2022-08-03T15:21:53.815Z,29.08
2022-08-03T15:24:21.523Z,29.22
2022-08-03T15:26:48.919Z,29.53
2022-08-03T15:30:08.744Z,29.91
2022-08-03T15:32:09.037Z,29.37
2022-08-03T15:34:36.919Z,29.12
2022-08-03T15:37:15.159Z,29.01
2022-08-03T15:39:58.941Z,29.26
2022-08-03T15:42:29.715Z,28.99
2022-08-03T15:44:57.226Z,29.13
2022-08-03T15:47:24.703Z,29.37
2022-08-03T15:49:52.047Z,29.00
2022-08-03T15:52:19.476Z,29.75
2022-08-03T15:54:46.785Z,28.60
2022-08-03T15:57:14.122Z,29.08
2022-08-03T15:59:41.505Z,28.91
2022-08-03T16:02:08.978Z,29.25
2022-08-03T16:04:36.428Z,28.89
2022-08-03T16:07:03.968Z,29.03
2022-08-03T16:09:42.185Z,29.36
2022-08-03T16:12:11.862Z,28.72
2022-08-03T16:14:52.322Z,28.84
2022-08-03T16:17:21.149Z,28.87
2022-08-03T16:19:48.816Z,29.16
2022-08-03T16:22:19.534Z,29.80
2022-08-03T16:24:47.301Z,29.58
2022-08-03T16:27:26.362Z,29.79
2022-08-03T16:30:02.605Z,29.24
2022-08-03T16:32:30.258Z,29.05
2022-08-03T16:34:57.870Z,29.87
2022-08-03T16:37:40.995Z,29.33
2022-08-03T16:40:19.316Z,30.22
2022-08-03T16:42:47.533Z,29.92
2022-08-03T16:45:14.895Z,29.71
2022-08-03T16:47:42.216Z,30.02
2022-08-03T16:50:15.939Z,30.19
2022-08-03T16:52:48.334Z,29.82
2022-08-03T16:55:18.521Z,30.34
2022-08-03T16:58:05.637Z,30.37
2022-08-03T17:00:41.533Z,30.74
2022-08-03T17:03:12.506Z,30.86
2022-08-03T17:05:48.072Z,30.35
2022-08-03T17:08:18.928Z,29.90
2022-08-03T17:10:54.207Z,29.84
2022-08-03T17:13:22.873Z,31.52
2022-08-03T17:15:57.850Z,31.59
2022-08-03T17:18:34.053Z,31.33
2022-08-03T17:21:05.861Z,31.62
2022-08-03T17:23:44.294Z,30.91
2022-08-03T17:26:21.123Z,30.50
2022-08-03T17:28:57.700Z,31.42
2022-08-03T17:31:31.509Z,32.20
2022-08-03T17:34:01.643Z,32.50
2022-08-03T17:36:53.960Z,33.17
2022-08-03T17:39:30.889Z,33.03
2022-08-03T17:42:30.039Z,33.36
2022-08-03T17:44:57.215Z,34.10
2022-08-03T17:47:42.948Z,33.24
2022-08-03T17:50:25.177Z,34.15
2022-08-03T17:53:07.717Z,33.44
2022-08-03T17:55:56.991Z,33.76
2022-08-03T17:58:54.669Z,34.08
2022-08-03T18:02:00.101Z,34.00
2022-08-03T18:04:41.657Z,34.23
2022-08-03T18:07:12.507Z,36.64
2022-08-03T18:10:06.362Z,34.81
2022-08-03T18:12:51.779Z,35.20
2022-08-03T18:15:26.959Z,35.69
2022-08-03T18:20:53.842Z,34.71
2022-08-03T18:23:36.319Z,36.03
2022-08-03T18:26:10.712Z,36.52
2022-08-03T18:28:40.617Z,35.59
2022-08-03T18:31:11.928Z,35.18
2022-08-03T18:34:16.919Z,35.78
2022-08-03T18:36:29.946Z,37.83
2022-08-03T18:39:02.600Z,38.70
2022-08-03T18:41:35.073Z,39.40
2022-08-03T18:44:08.023Z,38.53
2022-08-03T18:47:17.700Z,38.91
2022-08-03T18:50:20.258Z,39.91
2022-08-03T18:53:16.280Z,41.36
2022-08-03T18:56:02.391Z,40.96
2022-08-03T18:58:47.706Z,40.25
2022-08-03T19:02:00.707Z,41.75
2022-08-03T19:04:35.698Z,42.47
2022-08-03T19:07:05.002Z,42.68
2022-08-03T19:09:59.183Z,43.76
2022-08-03T19:12:51.568Z,41.40
2022-08-03T19:15:37.012Z,45.94
2022-08-03T19:18:11.257Z,44.81
2022-08-03T19:20:39.708Z,45.07
2022-08-03T19:23:08.163Z,44.58
2022-08-03T19:25:40.440Z,43.33
2022-08-03T19:28:09.225Z,44.06
2022-08-03T19:30:53.284Z,44.24
2022-08-03T19:33:21.566Z,44.99
2022-08-03T19:35:55.622Z,44.26
2022-08-03T19:38:28.531Z,45.05
2022-08-03T19:41:00.834Z,45.17
2022-08-03T19:46:30.571Z,45.60
2022-08-03T19:50:04.826Z,46.02
2022-08-03T19:52:16.993Z,45.64
2022-08-03T19:54:54.592Z,46.31
2022-08-03T19:57:28.560Z,45.95
2022-08-03T19:59:57.694Z,45.26
2022-08-03T20:05:14.909Z,45.51
2022-08-03T20:07:48.067Z,46.40
2022-08-03T20:10:17.895Z,45.19
2022-08-03T20:12:46.666Z,45.68
2022-08-03T20:15:22.190Z,44.94
2022-08-03T20:17:59.362Z,44.82
2022-08-03T20:20:32.816Z,45.19
2022-08-03T20:23:06.782Z,45.00
2022-08-03T20:25:48.824Z,45.79
2022-08-03T20:28:49.856Z,45.93
2022-08-03T20:31:23.791Z,45.19
2022-08-03T20:33:59.478Z,45.57
2022-08-03T20:36:26.984Z,45.68
2022-08-03T20:38:58.009Z,46.64
2022-08-03T20:41:25.797Z,44.88
2022-08-03T20:43:53.271Z,44.57
2022-08-03T20:46:31.946Z,45.80
2022-08-03T20:49:05.269Z,45.83
2022-08-03T20:51:49.193Z,45.27
2022-08-03T20:54:28.602Z,45.11
2022-08-03T20:57:03.847Z,45.46
2022-08-03T20:59:50.519Z,45.17
2022-08-03T21:02:29.732Z,45.68
2022-08-03T21:05:08.520Z,46.67
2022-08-03T21:08:04.021Z,46.62
2022-08-03T21:10:30.272Z,45.93
2022-08-03T21:12:57.499Z,34.46
2022-08-03T21:13:10.803Z,45.94
2022-08-03T21:13:12.958Z,46.27
2022-08-03T21:13:16.813Z,45.19
2022-08-03T21:16:06.563Z,45.41
2022-08-03T21:18:39.293Z,45.96
2022-08-03T21:21:09.063Z,45.21
2022-08-03T21:23:48.830Z,44.93
2022-08-03T21:26:19.890Z,46.83
2022-08-03T21:28:49.593Z,46.70
2022-08-03T21:31:24.282Z,45.62
2022-08-03T21:33:55.764Z,45.58
2022-08-03T21:36:23.889Z,47.42
2022-08-03T21:38:56.530Z,46.54
2022-08-03T21:41:26.198Z,47.55
2022-08-03T21:43:53.560Z,47.82
2022-08-03T21:46:22.864Z,47.34
2022-08-03T21:49:52.064Z,47.07
2022-08-03T21:51:50.076Z,46.37
2022-08-03T21:54:21.602Z,47.50
2022-08-03T21:56:51.381Z,47.37
2022-08-03T21:59:23.009Z,47.93
2022-08-03T22:01:55.433Z,47.22
2022-08-03T22:04:50.692Z,47.56
2022-08-03T22:07:15.989Z,46.87
2022-08-03T22:09:50.121Z,46.46
2022-08-03T22:12:26.090Z,47.74
2022-08-03T22:15:00.741Z,47.40
2022-08-03T22:17:55.708Z,47.46
2022-08-03T22:20:19.922Z,47.96
2022-08-03T22:22:55.675Z,47.75
2022-08-03T22:25:28.702Z,49.05
2022-08-03T22:27:58.669Z,48.90
2022-08-03T22:30:26.226Z,48.04
2022-08-03T22:32:54.705Z,48.52
2022-08-03T22:35:24.824Z,48.48
2022-08-03T22:37:54.631Z,47.77
2022-08-03T22:40:22.369Z,48.00
2022-08-03T22:42:52.123Z,48.73
2022-08-03T22:46:08.014Z,47.73
2022-08-03T22:48:08.509Z,48.98
2022-08-03T22:50:35.906Z,48.32
2022-08-03T22:53:03.472Z,48.42
2022-08-03T22:55:31.448Z,47.99
2022-08-03T22:57:58.899Z,47.95
2022-08-03T23:00:26.381Z,47.87
2022-08-03T23:02:56.912Z,48.12
2022-08-03T23:06:00.693Z,47.93
2022-08-03T23:08:20.521Z,47.50
2022-08-03T23:10:48.654Z,48.30
2022-08-03T23:13:17.610Z,48.31
2022-08-03T23:15:55.336Z,48.86
2022-08-03T23:18:24.368Z,48.98
2022-08-03T23:20:53.282Z,49.40
2022-08-03T23:23:20.951Z,50.03
2022-08-03T23:25:50.701Z,49.27
2022-08-03T23:28:19.186Z,49.85
2022-08-03T23:30:49.733Z,50.79
2022-08-03T23:33:18.126Z,50.04
2022-08-03T23:36:20.046Z,50.87
2022-08-03T23:38:45.004Z,49.97
2022-08-03T23:41:13.538Z,50.45
2022-08-03T23:43:52.263Z,50.51
2022-08-03T23:46:22.612Z,51.00
2022-08-03T23:48:50.943Z,50.88
2022-08-03T23:51:41.178Z,50.63
2022-08-03T23:54:14.687Z,49.98
2022-08-03T23:56:57.169Z,50.70
2022-08-03T23:59:40.713Z,50.11
